sensor_id;sensor_type;location;lat;lon;timestamp;P1;durP1;ratioP1;P2;durP2;ratioP2
30617;SDS011;17384;51.214;9.202;2023-10-09T00:01:01;5.88;;;3.30;;
30617;SDS011;17384;51.214;9.202;2023-10-09T00:03:38;3.13;;;2.35;;
30617;SDS011;17384;51.214;9.202;2023-10-09T00:06:07;3.63;;;2.38;;
30617;SDS011;17384;51.214;9.202;2023-10-09T00:08:33;7.03;;;3.08;;
30617;SDS011;17384;51.214;9.202;2023-10-09T00:11:02;7.00;;;3.03;;
30617;SDS011;17384;51.214;9.202;2023-10-09T00:13:39;6.10;;;3.28;;
30617;SDS011;17384;51.214;9.202;2023-10-09T00:16:16;9.80;;;3.63;;
30617;SDS011;17384;51.214;9.202;2023-10-09T00:18:49;6.32;;;3.45;;
30617;SDS011;17384;51.214;9.202;2023-10-09T00:21:16;4.70;;;2.70;;
30617;SDS011;17384;51.214;9.202;2023-10-09T00:23:45;8.98;;;3.03;;
30617;SDS011;17384;51.214;9.202;2023-10-09T00:26:17;9.40;;;3.45;;
30617;SDS011;17384;51.214;9.202;2023-10-09T00:28:44;5.60;;;2.72;;
30617;SDS011;17384;51.214;9.202;2023-10-09T00:31:12;4.63;;;2.88;;
30617;SDS011;17384;51.214;9.202;2023-10-09T00:33:41;4.43;;;2.67;;
30617;SDS011;17384;51.214;9.202;2023-10-09T00:36:08;5.75;;;2.78;;
30617;SDS011;17384;51.214;9.202;2023-10-09T00:38:35;4.78;;;2.50;;
30617;SDS011;17384;51.214;9.202;2023-10-09T00:41:01;9.50;;;3.13;;
30617;SDS011;17384;51.214;9.202;2023-10-09T00:43:32;4.85;;;2.88;;
30617;SDS011;17384;51.214;9.202;2023-10-09T00:46:00;5.25;;;2.65;;
30617;SDS011;17384;51.214;9.202;2023-10-09T00:48:59;6.63;;;2.78;;
30617;SDS011;17384;51.214;9.202;2023-10-09T00:51:27;3.35;;;2.88;;
30617;SDS011;17384;51.214;9.202;2023-10-09T00:54:00;6.50;;;3.22;;
30617;SDS011;17384;51.214;9.202;2023-10-09T00:56:34;5.57;;;3.08;;
30617;SDS011;17384;51.214;9.202;2023-10-09T00:59:10;3.53;;;2.72;;
30617;SDS011;17384;51.214;9.202;2023-10-09T01:01:41;8.10;;;2.92;;
30617;SDS011;17384;51.214;9.202;2023-10-09T01:04:21;6.13;;;3.00;;
30617;SDS011;17384;51.214;9.202;2023-10-09T01:06:51;3.38;;;2.42;;
30617;SDS011;17384;51.214;9.202;2023-10-09T01:09:33;4.78;;;2.95;;
30617;SDS011;17384;51.214;9.202;2023-10-09T01:12:03;9.63;;;2.95;;
30617;SDS011;17384;51.214;9.202;2023-10-09T01:14:30;6.53;;;2.63;;
30617;SDS011;17384;51.214;9.202;2023-10-09T01:17:00;5.07;;;2.50;;
30617;SDS011;17384;51.214;9.202;2023-10-09T01:19:27;4.85;;;2.38;;
30617;SDS011;17384;51.214;9.202;2023-10-09T01:21:53;6.22;;;3.10;;
30617;SDS011;17384;51.214;9.202;2023-10-09T01:24:19;7.30;;;3.15;;
30617;SDS011;17384;51.214;9.202;2023-10-09T01:26:45;6.00;;;2.90;;
30617;SDS011;17384;51.214;9.202;2023-10-09T01:29:12;5.45;;;3.00;;
30617;SDS011;17384;51.214;9.202;2023-10-09T01:31:41;4.55;;;2.38;;
30617;SDS011;17384;51.214;9.202;2023-10-09T01:34:29;6.00;;;3.03;;
30617;SDS011;17384;51.214;9.202;2023-10-09T01:37:13;8.15;;;3.63;;
30617;SDS011;17384;51.214;9.202;2023-10-09T01:39:44;8.23;;;3.78;;
30617;SDS011;17384;51.214;9.202;2023-10-09T01:42:17;8.77;;;3.33;;
30617;SDS011;17384;51.214;9.202;2023-10-09T01:44:57;6.78;;;2.85;;
30617;SDS011;17384;51.214;9.202;2023-10-09T01:47:41;5.45;;;3.13;;
30617;SDS011;17384;51.214;9.202;2023-10-09T01:50:11;7.00;;;3.05;;
30617;SDS011;17384;51.214;9.202;2023-10-09T01:55:09;8.38;;;3.33;;
30617;SDS011;17384;51.214;9.202;2023-10-09T01:57:55;7.25;;;3.58;;
30617;SDS011;17384;51.214;9.202;2023-10-09T02:00:31;6.70;;;2.90;;
30617;SDS011;17384;51.214;9.202;2023-10-09T02:03:00;6.25;;;3.80;;
30617;SDS011;17384;51.214;9.202;2023-10-09T02:05:30;7.45;;;3.10;;
30617;SDS011;17384;51.214;9.202;2023-10-09T02:07:58;4.45;;;3.20;;
30617;SDS011;17384;51.214;9.202;2023-10-09T02:10:29;7.90;;;3.30;;
30617;SDS011;17384;51.214;9.202;2023-10-09T02:13:00;6.55;;;3.22;;
30617;SDS011;17384;51.214;9.202;2023-10-09T02:15:37;7.82;;;3.05;;
30617;SDS011;17384;51.214;9.202;2023-10-09T02:18:11;5.38;;;3.05;;
30617;SDS011;17384;51.214;9.202;2023-10-09T02:20:52;9.25;;;3.33;;
30617;SDS011;17384;51.214;9.202;2023-10-09T02:23:27;7.93;;;3.92;;
30617;SDS011;17384;51.214;9.202;2023-10-09T02:26:05;6.82;;;3.90;;
30617;SDS011;17384;51.214;9.202;2023-10-09T02:28:54;7.53;;;3.15;;
30617;SDS011;17384;51.214;9.202;2023-10-09T02:31:30;6.50;;;3.22;;
30617;SDS011;17384;51.214;9.202;2023-10-09T02:34:05;5.30;;;3.58;;
30617;SDS011;17384;51.214;9.202;2023-10-09T02:36:33;4.45;;;3.05;;
30617;SDS011;17384;51.214;9.202;2023-10-09T02:39:03;6.35;;;3.05;;
30617;SDS011;17384;51.214;9.202;2023-10-09T02:41:32;5.05;;;3.35;;
30617;SDS011;17384;51.214;9.202;2023-10-09T02:43:59;8.27;;;3.40;;
30617;SDS011;17384;51.214;9.202;2023-10-09T02:46:36;8.60;;;3.47;;
30617;SDS011;17384;51.214;9.202;2023-10-09T02:49:04;6.90;;;4.25;;
30617;SDS011;17384;51.214;9.202;2023-10-09T02:51:31;5.53;;;3.38;;
30617;SDS011;17384;51.214;9.202;2023-10-09T02:54:03;13.63;;;4.00;;
30617;SDS011;17384;51.214;9.202;2023-10-09T02:56:52;14.02;;;3.75;;
30617;SDS011;17384;51.214;9.202;2023-10-09T02:59:23;8.77;;;3.60;;
30617;SDS011;17384;51.214;9.202;2023-10-09T03:01:49;10.55;;;3.75;;
30617;SDS011;17384;51.214;9.202;2023-10-09T03:04:18;5.22;;;3.17;;
30617;SDS011;17384;51.214;9.202;2023-10-09T03:06:44;4.40;;;2.50;;
30617;SDS011;17384;51.214;9.202;2023-10-09T03:09:16;9.68;;;3.20;;
30617;SDS011;17384;51.214;9.202;2023-10-09T03:11:49;9.95;;;3.67;;
30617;SDS011;17384;51.214;9.202;2023-10-09T03:14:27;6.20;;;3.53;;
30617;SDS011;17384;51.214;9.202;2023-10-09T03:16:53;8.55;;;4.32;;
30617;SDS011;17384;51.214;9.202;2023-10-09T03:19:21;8.50;;;3.80;;
30617;SDS011;17384;51.214;9.202;2023-10-09T03:21:46;4.45;;;3.17;;
30617;SDS011;17384;51.214;9.202;2023-10-09T03:24:12;7.82;;;4.25;;
30617;SDS011;17384;51.214;9.202;2023-10-09T03:26:37;4.65;;;2.92;;
30617;SDS011;17384;51.214;9.202;2023-10-09T03:29:03;7.32;;;3.67;;
30617;SDS011;17384;51.214;9.202;2023-10-09T03:31:38;8.70;;;4.13;;
30617;SDS011;17384;51.214;9.202;2023-10-09T03:34:04;6.30;;;3.78;;
30617;SDS011;17384;51.214;9.202;2023-10-09T03:36:30;7.10;;;3.97;;
30617;SDS011;17384;51.214;9.202;2023-10-09T03:38:56;8.30;;;4.15;;
30617;SDS011;17384;51.214;9.202;2023-10-09T03:41:25;8.38;;;4.20;;
30617;SDS011;17384;51.214;9.202;2023-10-09T03:43:54;12.05;;;4.70;;
30617;SDS011;17384;51.214;9.202;2023-10-09T03:46:22;9.63;;;4.43;;
30617;SDS011;17384;51.214;9.202;2023-10-09T03:48:57;14.25;;;4.80;;
30617;SDS011;17384;51.214;9.202;2023-10-09T03:51:25;9.25;;;5.07;;
30617;SDS011;17384;51.214;9.202;2023-10-09T03:53:52;7.70;;;4.53;;
30617;SDS011;17384;51.214;9.202;2023-10-09T03:56:20;10.00;;;4.50;;
30617;SDS011;17384;51.214;9.202;2023-10-09T03:58:49;11.77;;;5.35;;
30617;SDS011;17384;51.214;9.202;2023-10-09T04:01:16;7.57;;;3.97;;
30617;SDS011;17384;51.214;9.202;2023-10-09T04:03:58;7.90;;;4.55;;
30617;SDS011;17384;51.214;9.202;2023-10-09T04:06:26;8.30;;;4.50;;
30617;SDS011;17384;51.214;9.202;2023-10-09T04:08:56;12.13;;;4.00;;
30617;SDS011;17384;51.214;9.202;2023-10-09T04:11:23;10.18;;;4.40;;
30617;SDS011;17384;51.214;9.202;2023-10-09T04:13:49;10.82;;;4.40;;
30617;SDS011;17384;51.214;9.202;2023-10-09T04:16:17;13.20;;;5.68;;
30617;SDS011;17384;51.214;9.202;2023-10-09T04:19:01;25.20;;;7.13;;
30617;SDS011;17384;51.214;9.202;2023-10-09T04:21:33;19.65;;;7.60;;
30617;SDS011;17384;51.214;9.202;2023-10-09T04:24:08;14.98;;;6.82;;
30617;SDS011;17384;51.214;9.202;2023-10-09T04:26:39;17.90;;;7.93;;
30617;SDS011;17384;51.214;9.202;2023-10-09T04:29:13;21.98;;;7.50;;
30617;SDS011;17384;51.214;9.202;2023-10-09T04:31:46;13.88;;;6.47;;
30617;SDS011;17384;51.214;9.202;2023-10-09T04:34:19;18.73;;;6.97;;
30617;SDS011;17384;51.214;9.202;2023-10-09T04:36:48;18.98;;;6.88;;
30617;SDS011;17384;51.214;9.202;2023-10-09T04:39:15;10.20;;;6.25;;
30617;SDS011;17384;51.214;9.202;2023-10-09T04:41:52;11.38;;;6.13;;
30617;SDS011;17384;51.214;9.202;2023-10-09T04:44:24;12.13;;;6.78;;
30617;SDS011;17384;51.214;9.202;2023-10-09T04:46:54;15.95;;;5.90;;
30617;SDS011;17384;51.214;9.202;2023-10-09T04:49:36;13.35;;;6.65;;
30617;SDS011;17384;51.214;9.202;2023-10-09T04:52:26;12.35;;;6.10;;
30617;SDS011;17384;51.214;9.202;2023-10-09T04:54:57;12.50;;;5.90;;
30617;SDS011;17384;51.214;9.202;2023-10-09T04:57:45;9.07;;;5.22;;
30617;SDS011;17384;51.214;9.202;2023-10-09T05:00:26;13.00;;;6.00;;
30617;SDS011;17384;51.214;9.202;2023-10-09T05:02:52;13.57;;;6.38;;
30617;SDS011;17384;51.214;9.202;2023-10-09T05:05:30;11.85;;;5.70;;
30617;SDS011;17384;51.214;9.202;2023-10-09T05:08:08;12.75;;;6.32;;
30617;SDS011;17384;51.214;9.202;2023-10-09T05:10:47;11.75;;;5.18;;
30617;SDS011;17384;51.214;9.202;2023-10-09T05:13:25;19.90;;;5.90;;
30617;SDS011;17384;51.214;9.202;2023-10-09T05:18:44;15.48;;;5.20;;
30617;SDS011;17384;51.214;9.202;2023-10-09T05:21:21;13.93;;;5.93;;
30617;SDS011;17384;51.214;9.202;2023-10-09T05:23:56;14.13;;;5.35;;
30617;SDS011;17384;51.214;9.202;2023-10-09T05:26:47;12.40;;;6.18;;
30617;SDS011;17384;51.214;9.202;2023-10-09T05:29:14;12.07;;;5.65;;
30617;SDS011;17384;51.214;9.202;2023-10-09T05:31:58;14.85;;;6.63;;
30617;SDS011;17384;51.214;9.202;2023-10-09T05:34:28;21.38;;;6.13;;
30617;SDS011;17384;51.214;9.202;2023-10-09T05:39:46;10.93;;;6.35;;
30617;SDS011;17384;51.214;9.202;2023-10-09T05:42:33;19.40;;;6.32;;
30617;SDS011;17384;51.214;9.202;2023-10-09T05:45:03;16.85;;;7.07;;
30617;SDS011;17384;51.214;9.202;2023-10-09T05:47:49;13.00;;;6.72;;
30617;SDS011;17384;51.214;9.202;2023-10-09T05:50:22;16.23;;;7.13;;
30617;SDS011;17384;51.214;9.202;2023-10-09T05:52:50;17.45;;;7.32;;
30617;SDS011;17384;51.214;9.202;2023-10-09T05:55:20;16.27;;;6.93;;
30617;SDS011;17384;51.214;9.202;2023-10-09T05:57:46;17.80;;;7.70;;
30617;SDS011;17384;51.214;9.202;2023-10-09T06:00:21;13.48;;;6.00;;
30617;SDS011;17384;51.214;9.202;2023-10-09T06:03:05;14.93;;;6.38;;
30617;SDS011;17384;51.214;9.202;2023-10-09T06:05:49;8.70;;;5.68;;
30617;SDS011;17384;51.214;9.202;2023-10-09T06:08:23;10.27;;;5.95;;
30617;SDS011;17384;51.214;9.202;2023-10-09T06:11:03;17.30;;;6.93;;
30617;SDS011;17384;51.214;9.202;2023-10-09T06:13:55;14.23;;;6.60;;
30617;SDS011;17384;51.214;9.202;2023-10-09T06:16:34;11.90;;;6.10;;
30617;SDS011;17384;51.214;9.202;2023-10-09T06:19:06;12.23;;;6.22;;
30617;SDS011;17384;51.214;9.202;2023-10-09T06:21:33;17.35;;;8.48;;
30617;SDS011;17384;51.214;9.202;2023-10-09T06:24:21;15.05;;;6.72;;
30617;SDS011;17384;51.214;9.202;2023-10-09T06:27:06;12.20;;;6.47;;
30617;SDS011;17384;51.214;9.202;2023-10-09T06:29:31;16.98;;;7.82;;
30617;SDS011;17384;51.214;9.202;2023-10-09T06:32:04;15.77;;;8.73;;
30617;SDS011;17384;51.214;9.202;2023-10-09T06:34:46;16.10;;;7.70;;
30617;SDS011;17384;51.214;9.202;2023-10-09T06:37:16;19.25;;;7.55;;
30617;SDS011;17384;51.214;9.202;2023-10-09T06:39:52;15.52;;;7.63;;
30617;SDS011;17384;51.214;9.202;2023-10-09T06:42:21;14.98;;;7.47;;
30617;SDS011;17384;51.214;9.202;2023-10-09T06:45:07;15.88;;;8.15;;
30617;SDS011;17384;51.214;9.202;2023-10-09T06:47:36;15.45;;;7.10;;
30617;SDS011;17384;51.214;9.202;2023-10-09T06:50:18;14.25;;;7.05;;
30617;SDS011;17384;51.214;9.202;2023-10-09T06:52:45;25.90;;;7.60;;
30617;SDS011;17384;51.214;9.202;2023-10-09T06:55:22;18.73;;;7.10;;
30617;SDS011;17384;51.214;9.202;2023-10-09T06:58:02;14.57;;;6.20;;
30617;SDS011;17384;51.214;9.202;2023-10-09T07:00:40;15.88;;;7.30;;
30617;SDS011;17384;51.214;9.202;2023-10-09T07:03:29;18.63;;;7.38;;
30617;SDS011;17384;51.214;9.202;2023-10-09T07:08:51;17.50;;;6.80;;
30617;SDS011;17384;51.214;9.202;2023-10-09T07:14:04;16.52;;;6.65;;
30617;SDS011;17384;51.214;9.202;2023-10-09T07:16:32;15.85;;;7.43;;
30617;SDS011;17384;51.214;9.202;2023-10-09T07:19:05;17.42;;;7.25;;
30617;SDS011;17384;51.214;9.202;2023-10-09T07:21:49;19.60;;;7.32;;
30617;SDS011;17384;51.214;9.202;2023-10-09T07:24:19;13.88;;;6.25;;
30617;SDS011;17384;51.214;9.202;2023-10-09T07:26:50;18.95;;;7.40;;
30617;SDS011;17384;51.214;9.202;2023-10-09T07:29:18;12.57;;;6.45;;
30617;SDS011;17384;51.214;9.202;2023-10-09T07:31:48;11.15;;;6.32;;
30617;SDS011;17384;51.214;9.202;2023-10-09T07:34:22;16.58;;;6.97;;
30617;SDS011;17384;51.214;9.202;2023-10-09T07:37:27;16.70;;;7.50;;
30617;SDS011;17384;51.214;9.202;2023-10-09T07:39:58;25.25;;;7.93;;
30617;SDS011;17384;51.214;9.202;2023-10-09T07:42:26;17.10;;;6.82;;
30617;SDS011;17384;51.214;9.202;2023-10-09T07:45:09;22.50;;;7.38;;
30617;SDS011;17384;51.214;9.202;2023-10-09T07:47:58;13.18;;;6.13;;
30617;SDS011;17384;51.214;9.202;2023-10-09T07:50:25;12.20;;;7.13;;
30617;SDS011;17384;51.214;9.202;2023-10-09T07:53:03;15.52;;;7.20;;
30617;SDS011;17384;51.214;9.202;2023-10-09T07:56:05;21.88;;;7.55;;
30617;SDS011;17384;51.214;9.202;2023-10-09T07:58:33;20.02;;;8.48;;
30617;SDS011;17384;51.214;9.202;2023-10-09T08:01:11;21.90;;;7.97;;
30617;SDS011;17384;51.214;9.202;2023-10-09T08:03:41;19.23;;;8.38;;
30617;SDS011;17384;51.214;9.202;2023-10-09T08:06:11;22.23;;;8.77;;
30617;SDS011;17384;51.214;9.202;2023-10-09T08:09:15;19.60;;;8.27;;
30617;SDS011;17384;51.214;9.202;2023-10-09T08:11:44;21.65;;;8.43;;
30617;SDS011;17384;51.214;9.202;2023-10-09T08:14:12;18.92;;;7.65;;
30617;SDS011;17384;51.214;9.202;2023-10-09T08:16:56;14.13;;;7.93;;
30617;SDS011;17384;51.214;9.202;2023-10-09T08:19:51;18.25;;;7.90;;
30617;SDS011;17384;51.214;9.202;2023-10-09T08:22:26;17.98;;;7.32;;
30617;SDS011;17384;51.214;9.202;2023-10-09T08:27:21;31.08;;;8.43;;
30617;SDS011;17384;51.214;9.202;2023-10-09T08:29:57;15.15;;;7.68;;
30617;SDS011;17384;51.214;9.202;2023-10-09T08:32:52;15.93;;;8.02;;
30617;SDS011;17384;51.214;9.202;2023-10-09T08:35:30;16.23;;;7.70;;
30617;SDS011;17384;51.214;9.202;2023-10-09T08:37:58;18.20;;;7.55;;
30617;SDS011;17384;51.214;9.202;2023-10-09T08:40:34;18.13;;;8.13;;
30617;SDS011;17384;51.214;9.202;2023-10-09T08:45:53;26.55;;;7.57;;
30617;SDS011;17384;51.214;9.202;2023-10-09T08:48:26;11.48;;;7.25;;
30617;SDS011;17384;51.214;9.202;2023-10-09T08:50:53;18.08;;;8.07;;
30617;SDS011;17384;51.214;9.202;2023-10-09T08:53:20;19.02;;;7.97;;
30617;SDS011;17384;51.214;9.202;2023-10-09T08:55:46;18.92;;;7.97;;
30617;SDS011;17384;51.214;9.202;2023-10-09T08:58:15;19.30;;;7.50;;
30617;SDS011;17384;51.214;9.202;2023-10-09T09:00:45;17.17;;;7.68;;
30617;SDS011;17384;51.214;9.202;2023-10-09T09:03:20;21.75;;;8.65;;
30617;SDS011;17384;51.214;9.202;2023-10-09T09:06:09;27.25;;;7.68;;
30617;SDS011;17384;51.214;9.202;2023-10-09T09:08:34;16.90;;;6.97;;
30617;SDS011;17384;51.214;9.202;2023-10-09T09:11:03;12.55;;;6.53;;
30617;SDS011;17384;51.214;9.202;2023-10-09T09:13:42;16.30;;;6.88;;
30617;SDS011;17384;51.214;9.202;2023-10-09T09:16:32;17.38;;;7.05;;
30617;SDS011;17384;51.214;9.202;2023-10-09T09:19:03;19.85;;;6.78;;
30617;SDS011;17384;51.214;9.202;2023-10-09T09:21:35;13.98;;;7.07;;
30617;SDS011;17384;51.214;9.202;2023-10-09T09:24:06;23.67;;;8.02;;
30617;SDS011;17384;51.214;9.202;2023-10-09T09:27:01;18.55;;;7.05;;
30617;SDS011;17384;51.214;9.202;2023-10-09T09:29:59;21.48;;;7.65;;
30617;SDS011;17384;51.214;9.202;2023-10-09T09:32:32;22.83;;;8.25;;
30617;SDS011;17384;51.214;9.202;2023-10-09T09:35:02;15.50;;;7.95;;
30617;SDS011;17384;51.214;9.202;2023-10-09T09:37:32;16.63;;;7.38;;
30617;SDS011;17384;51.214;9.202;2023-10-09T09:40:07;15.13;;;7.13;;
30617;SDS011;17384;51.214;9.202;2023-10-09T09:42:56;16.20;;;7.25;;
30617;SDS011;17384;51.214;9.202;2023-10-09T09:45:36;23.80;;;8.20;;
30617;SDS011;17384;51.214;9.202;2023-10-09T09:48:03;17.35;;;7.47;;
30617;SDS011;17384;51.214;9.202;2023-10-09T09:50:35;19.33;;;7.00;;
30617;SDS011;17384;51.214;9.202;2023-10-09T09:53:11;16.98;;;7.57;;
30617;SDS011;17384;51.214;9.202;2023-10-09T09:55:53;17.73;;;6.95;;
30617;SDS011;17384;51.214;9.202;2023-10-09T09:58:23;23.52;;;7.57;;
30617;SDS011;17384;51.214;9.202;2023-10-09T10:00:52;25.85;;;7.85;;
30617;SDS011;17384;51.214;9.202;2023-10-09T10:03:24;17.88;;;6.40;;
30617;SDS011;17384;51.214;9.202;2023-10-09T10:05:54;16.57;;;6.37;;
30617;SDS011;17384;51.214;9.202;2023-10-09T10:08:22;14.90;;;7.05;;
30617;SDS011;17384;51.214;9.202;2023-10-09T10:10:57;20.92;;;7.55;;
30617;SDS011;17384;51.214;9.202;2023-10-09T10:16:13;19.15;;;7.78;;
30617;SDS011;17384;51.214;9.202;2023-10-09T10:21:41;20.75;;;8.07;;
30617;SDS011;17384;51.214;9.202;2023-10-09T10:32:54;12.25;;;6.38;;
30617;SDS011;17384;51.214;9.202;2023-10-09T10:35:21;23.40;;;7.70;;
30617;SDS011;17384;51.214;9.202;2023-10-09T10:38:32;17.00;;;6.80;;
30617;SDS011;17384;51.214;9.202;2023-10-09T10:41:12;19.55;;;6.80;;
30617;SDS011;17384;51.214;9.202;2023-10-09T10:43:41;21.20;;;8.10;;
30617;SDS011;17384;51.214;9.202;2023-10-09T10:46:20;16.90;;;6.75;;
30617;SDS011;17384;51.214;9.202;2023-10-09T10:48:57;13.70;;;6.43;;
30617;SDS011;17384;51.214;9.202;2023-10-09T10:51:26;16.20;;;7.03;;
30617;SDS011;17384;51.214;9.202;2023-10-09T10:54:00;13.15;;;7.10;;
30617;SDS011;17384;51.214;9.202;2023-10-09T10:56:46;17.05;;;6.13;;
30617;SDS011;17384;51.214;9.202;2023-10-09T10:59:13;10.82;;;5.53;;
30617;SDS011;17384;51.214;9.202;2023-10-09T11:01:39;19.95;;;7.15;;
30617;SDS011;17384;51.214;9.202;2023-10-09T11:04:24;14.98;;;6.68;;
30617;SDS011;17384;51.214;9.202;2023-10-09T11:09:50;12.88;;;6.50;;
30617;SDS011;17384;51.214;9.202;2023-10-09T11:12:29;18.80;;;6.07;;
30617;SDS011;17384;51.214;9.202;2023-10-09T11:15:32;18.83;;;6.90;;
30617;SDS011;17384;51.214;9.202;2023-10-09T11:18:11;12.95;;;6.10;;
30617;SDS011;17384;51.214;9.202;2023-10-09T11:20:44;19.38;;;7.25;;
30617;SDS011;17384;51.214;9.202;2023-10-09T11:23:40;15.35;;;6.63;;
30617;SDS011;17384;51.214;9.202;2023-10-09T11:26:27;16.30;;;6.10;;
30617;SDS011;17384;51.214;9.202;2023-10-09T11:29:06;16.45;;;6.53;;
30617;SDS011;17384;51.214;9.202;2023-10-09T11:31:38;11.30;;;5.45;;
30617;SDS011;17384;51.214;9.202;2023-10-09T11:34:22;11.10;;;6.03;;
30617;SDS011;17384;51.214;9.202;2023-10-09T11:36:57;20.75;;;6.80;;
30617;SDS011;17384;51.214;9.202;2023-10-09T11:39:25;10.30;;;5.75;;
30617;SDS011;17384;51.214;9.202;2023-10-09T11:42:06;15.23;;;6.22;;
30617;SDS011;17384;51.214;9.202;2023-10-09T11:44:39;19.27;;;6.45;;
30617;SDS011;17384;51.214;9.202;2023-10-09T11:47:06;13.85;;;5.85;;
30617;SDS011;17384;51.214;9.202;2023-10-09T11:49:57;19.85;;;6.22;;
30617;SDS011;17384;51.214;9.202;2023-10-09T11:52:30;16.70;;;5.90;;
30617;SDS011;17384;51.214;9.202;2023-10-09T11:55:01;9.93;;;5.53;;
30617;SDS011;17384;51.214;9.202;2023-10-09T11:57:28;16.05;;;5.10;;
30617;SDS011;17384;51.214;9.202;2023-10-09T11:59:58;12.10;;;6.13;;
30617;SDS011;17384;51.214;9.202;2023-10-09T12:02:25;19.88;;;6.65;;
30617;SDS011;17384;51.214;9.202;2023-10-09T12:04:51;15.70;;;5.07;;
30617;SDS011;17384;51.214;9.202;2023-10-09T12:07:16;11.15;;;5.78;;
30617;SDS011;17384;51.214;9.202;2023-10-09T12:09:45;12.77;;;6.32;;
30617;SDS011;17384;51.214;9.202;2023-10-09T12:12:12;12.32;;;5.38;;
30617;SDS011;17384;51.214;9.202;2023-10-09T12:14:38;8.18;;;5.05;;
30617;SDS011;17384;51.214;9.202;2023-10-09T12:17:04;12.80;;;5.00;;
30617;SDS011;17384;51.214;9.202;2023-10-09T12:19:34;11.25;;;5.90;;
30617;SDS011;17384;51.214;9.202;2023-10-09T12:22:01;11.93;;;5.15;;
30617;SDS011;17384;51.214;9.202;2023-10-09T12:24:29;13.82;;;5.82;;
30617;SDS011;17384;51.214;9.202;2023-10-09T12:26:55;10.98;;;4.88;;
30617;SDS011;17384;51.214;9.202;2023-10-09T12:29:21;12.45;;;6.22;;
30617;SDS011;17384;51.214;9.202;2023-10-09T12:31:48;12.68;;;5.70;;
30617;SDS011;17384;51.214;9.202;2023-10-09T12:34:23;13.75;;;5.20;;
30617;SDS011;17384;51.214;9.202;2023-10-09T12:36:58;11.65;;;6.15;;
30617;SDS011;17384;51.214;9.202;2023-10-09T12:39:27;14.30;;;4.90;;
30617;SDS011;17384;51.214;9.202;2023-10-09T12:41:58;12.45;;;5.55;;
30617;SDS011;17384;51.214;9.202;2023-10-09T12:46:59;10.40;;;5.15;;
30617;SDS011;17384;51.214;9.202;2023-10-09T12:49:29;11.40;;;5.70;;
30617;SDS011;17384;51.214;9.202;2023-10-09T12:51:54;10.77;;;5.32;;
30617;SDS011;17384;51.214;9.202;2023-10-09T12:54:21;12.00;;;5.30;;
30617;SDS011;17384;51.214;9.202;2023-10-09T12:56:52;14.93;;;5.18;;
30617;SDS011;17384;51.214;9.202;2023-10-09T12:59:18;10.00;;;5.20;;
30617;SDS011;17384;51.214;9.202;2023-10-09T13:01:45;14.32;;;5.13;;
30617;SDS011;17384;51.214;9.202;2023-10-09T13:04:17;11.55;;;5.20;;
30617;SDS011;17384;51.214;9.202;2023-10-09T13:06:47;11.55;;;5.50;;
30617;SDS011;17384;51.214;9.202;2023-10-09T13:09:15;10.30;;;5.05;;
30617;SDS011;17384;51.214;9.202;2023-10-09T13:11:58;10.60;;;5.38;;
30617;SDS011;17384;51.214;9.202;2023-10-09T13:14:25;14.50;;;4.88;;
30617;SDS011;17384;51.214;9.202;2023-10-09T13:16:54;8.73;;;5.25;;
30617;SDS011;17384;51.214;9.202;2023-10-09T13:19:19;9.05;;;4.93;;
30617;SDS011;17384;51.214;9.202;2023-10-09T13:21:49;6.50;;;4.50;;
30617;SDS011;17384;51.214;9.202;2023-10-09T13:24:15;13.77;;;5.22;;
30617;SDS011;17384;51.214;9.202;2023-10-09T13:26:43;10.02;;;4.43;;
30617;SDS011;17384;51.214;9.202;2023-10-09T13:29:16;11.50;;;5.07;;
30617;SDS011;17384;51.214;9.202;2023-10-09T13:31:47;11.82;;;5.03;;
30617;SDS011;17384;51.214;9.202;2023-10-09T13:34:14;12.15;;;4.50;;
30617;SDS011;17384;51.214;9.202;2023-10-09T13:36:42;17.85;;;5.10;;
30617;SDS011;17384;51.214;9.202;2023-10-09T13:39:21;12.18;;;4.82;;
30617;SDS011;17384;51.214;9.202;2023-10-09T13:41:52;13.50;;;5.00;;
30617;SDS011;17384;51.214;9.202;2023-10-09T13:44:26;16.45;;;4.70;;
30617;SDS011;17384;51.214;9.202;2023-10-09T13:47:05;17.20;;;5.05;;
30617;SDS011;17384;51.214;9.202;2023-10-09T13:49:33;12.60;;;4.95;;
30617;SDS011;17384;51.214;9.202;2023-10-09T13:52:02;9.85;;;5.00;;
30617;SDS011;17384;51.214;9.202;2023-10-09T13:54:28;17.27;;;4.72;;
30617;SDS011;17384;51.214;9.202;2023-10-09T13:56:58;12.18;;;5.18;;
30617;SDS011;17384;51.214;9.202;2023-10-09T13:59:24;13.77;;;4.60;;
30617;SDS011;17384;51.214;9.202;2023-10-09T14:01:52;20.42;;;5.40;;
30617;SDS011;17384;51.214;9.202;2023-10-09T14:04:21;12.05;;;4.65;;
30617;SDS011;17384;51.214;9.202;2023-10-09T14:06:48;21.25;;;5.82;;
30617;SDS011;17384;51.214;9.202;2023-10-09T14:09:16;14.73;;;5.30;;
30617;SDS011;17384;51.214;9.202;2023-10-09T14:12:02;14.73;;;5.60;;
30617;SDS011;17384;51.214;9.202;2023-10-09T14:14:35;14.18;;;5.38;;
30617;SDS011;17384;51.214;9.202;2023-10-09T14:17:08;15.70;;;5.63;;
30617;SDS011;17384;51.214;9.202;2023-10-09T14:19:42;9.73;;;5.03;;
30617;SDS011;17384;51.214;9.202;2023-10-09T14:22:15;10.98;;;4.45;;
30617;SDS011;17384;51.214;9.202;2023-10-09T14:24:44;13.23;;;5.00;;
30617;SDS011;17384;51.214;9.202;2023-10-09T14:27:11;15.05;;;5.40;;
30617;SDS011;17384;51.214;9.202;2023-10-09T14:29:43;17.83;;;5.40;;
30617;SDS011;17384;51.214;9.202;2023-10-09T14:32:11;14.65;;;5.25;;
30617;SDS011;17384;51.214;9.202;2023-10-09T14:34:42;15.80;;;5.40;;
30617;SDS011;17384;51.214;9.202;2023-10-09T14:37:17;14.38;;;5.43;;
30617;SDS011;17384;51.214;9.202;2023-10-09T14:39:44;14.68;;;4.75;;
30617;SDS011;17384;51.214;9.202;2023-10-09T14:42:16;12.10;;;5.18;;
30617;SDS011;17384;51.214;9.202;2023-10-09T14:44:42;11.60;;;4.50;;
30617;SDS011;17384;51.214;9.202;2023-10-09T14:47:10;13.90;;;4.88;;
30617;SDS011;17384;51.214;9.202;2023-10-09T14:49:36;10.55;;;4.82;;
30617;SDS011;17384;51.214;9.202;2023-10-09T14:52:11;15.73;;;6.38;;
30617;SDS011;17384;51.214;9.202;2023-10-09T14:54:41;21.30;;;5.97;;
30617;SDS011;17384;51.214;9.202;2023-10-09T14:57:07;21.02;;;5.43;;
30617;SDS011;17384;51.214;9.202;2023-10-09T14:59:36;23.95;;;5.78;;
30617;SDS011;17384;51.214;9.202;2023-10-09T15:02:02;18.00;;;4.55;;
30617;SDS011;17384;51.214;9.202;2023-10-09T15:04:27;14.35;;;4.80;;
30617;SDS011;17384;51.214;9.202;2023-10-09T15:06:53;15.13;;;6.47;;
30617;SDS011;17384;51.214;9.202;2023-10-09T15:09:18;12.07;;;5.15;;
30617;SDS011;17384;51.214;9.202;2023-10-09T15:11:48;14.70;;;4.68;;
30617;SDS011;17384;51.214;9.202;2023-10-09T15:14:14;18.38;;;4.53;;
30617;SDS011;17384;51.214;9.202;2023-10-09T15:16:41;17.38;;;5.38;;
30617;SDS011;17384;51.214;9.202;2023-10-09T15:19:08;15.38;;;6.00;;
30617;SDS011;17384;51.214;9.202;2023-10-09T15:21:35;19.55;;;5.35;;
30617;SDS011;17384;51.214;9.202;2023-10-09T15:24:08;12.38;;;4.85;;
30617;SDS011;17384;51.214;9.202;2023-10-09T15:26:37;15.52;;;5.70;;
30617;SDS011;17384;51.214;9.202;2023-10-09T15:29:03;15.80;;;4.68;;
30617;SDS011;17384;51.214;9.202;2023-10-09T15:31:31;11.23;;;4.93;;
30617;SDS011;17384;51.214;9.202;2023-10-09T15:33:58;10.00;;;4.30;;
30617;SDS011;17384;51.214;9.202;2023-10-09T15:36:24;12.80;;;4.30;;
30617;SDS011;17384;51.214;9.202;2023-10-09T15:38:53;14.48;;;5.72;;
30617;SDS011;17384;51.214;9.202;2023-10-09T15:41:22;19.30;;;5.88;;
30617;SDS011;17384;51.214;9.202;2023-10-09T15:43:48;11.15;;;4.95;;
30617;SDS011;17384;51.214;9.202;2023-10-09T15:46:14;14.10;;;4.80;;
30617;SDS011;17384;51.214;9.202;2023-10-09T15:48:40;16.67;;;4.88;;
30617;SDS011;17384;51.214;9.202;2023-10-09T15:51:10;13.57;;;4.97;;